Time;durP1;ratioP1;P1;durP2;ratioP2;P2;SDS_P1;SDS_P2;PMS_P1;PMS_P2;Temp;Humidity;BMP_temperature;BMP_pressure;BME280_temperature;BME280_humidity;BME280_pressure;Samples;Min_cycle;Max_cycle;Signal;HPM_P1;HPM_P2
2023/11/15 00:01:59;;;;;;;14.52;8.68;;;;;;;6.88;99.86;99733.38;6123745;23;20092;-82
2023/11/15 00:04:26;;;;;;;11.93;7.15;;;;;;;6.92;96.57;99708.91;6124368;23;20009;-82
2023/11/15 00:06:51;;;;;;;11.75;7.40;;;;;;;6.59;96.37;99706.22;6150162;23;20471;-82
2023/11/15 00:09:18;;;;;;;12.20;7.20;;;;;;;6.24;98.72;99709.00;6124506;23;20071;-82
2023/11/15 00:11:43;;;;;;;15.15;8.07;;;;;;;5.74;100.00;99711.00;6123988;23;20055;-81
2023/11/15 00:14:09;;;;;;;13.80;7.43;;;;;;;6.06;98.37;99690.19;6123903;23;20080;-81
2023/11/15 00:16:35;;;;;;;10.70;6.97;;;;;;;5.99;97.77;99693.63;6150228;23;20020;-82
2023/11/15 00:19:03;;;;;;;13.93;7.20;;;;;;;5.49;99.80;99658.56;6123690;23;20068;-81
2023/11/15 00:21:29;;;;;;;13.30;6.70;;;;;;;5.34;100.00;99652.59;6124170;23;20001;-82
2023/11/15 00:23:54;;;;;;;13.63;7.55;;;;;;;5.56;100.00;99656.78;6150268;23;20005;-82
2023/11/15 00:26:19;;;;;;;13.77;8.60;;;;;;;6.10;98.70;99664.97;6125384;23;20080;-82
2023/11/15 00:28:45;;;;;;;16.23;8.38;;;;;;;6.02;99.94;99669.41;6126343;23;20010;-81
2023/11/15 00:31:11;;;;;;;15.55;9.73;;;;;;;6.36;98.68;99683.56;6125829;23;20084;-81
2023/11/15 00:33:37;;;;;;;14.45;10.05;;;;;;;6.26;98.05;99677.84;6126512;23;20033;-82
2023/11/15 00:36:03;;;;;;;15.50;9.70;;;;;;;6.07;99.56;99662.69;6152544;23;20107;-82
2023/11/15 00:38:29;;;;;;;17.42;9.68;;;;;;;5.95;100.00;99665.94;6152486;23;20103;-82
2023/11/15 00:40:54;;;;;;;15.00;9.00;;;;;;;5.81;100.00;99645.69;6151747;23;20014;-81
2023/11/15 00:43:20;;;;;;;16.83;9.95;;;;;;;5.94;100.00;99652.88;6152131;23;20009;-82
2023/11/15 00:45:45;;;;;;;15.88;9.30;;;;;;;5.56;100.00;99632.97;6152268;23;20313;-82
2023/11/15 00:48:12;;;;;;;14.68;9.27;;;;;;;5.86;100.00;99655.69;6126489;23;20347;-83
2023/11/15 00:50:42;;;;;;;17.13;9.93;;;;;;;6.17;99.53;99684.31;6127414;23;20068;-83
2023/11/15 00:53:08;;;;;;;14.07;9.30;;;;;;;6.19;100.00;99658.44;6152181;23;20036;-81
2023/11/15 00:55:34;;;;;;;17.02;9.65;;;;;;;6.30;98.71;99641.19;6151708;23;20059;-81
2023/11/15 00:57:59;;;;;;;15.95;9.20;;;;;;;6.49;97.28;99658.91;6126067;23;20076;-81
2023/11/15 01:00:26;;;;;;;15.98;9.13;;;;;;;6.25;98.32;99647.06;6125731;23;20005;-81
2023/11/15 01:02:57;;;;;;;16.20;9.27;;;;;;;6.28;98.86;99657.25;6125683;23;20332;-82
2023/11/15 01:05:23;;;;;;;14.15;9.05;;;;;;;6.51;97.37;99653.44;6125813;23;20332;-81
2023/11/15 01:07:49;;;;;;;16.48;8.70;;;;;;;6.27;97.76;99625.69;6152036;23;20005;-81
2023/11/15 01:10:14;;;;;;;15.73;9.05;;;;;;;6.32;97.93;99624.06;6126194;23;20005;-81
2023/11/15 01:12:41;;;;;;;36.97;26.42;;;;;;;6.13;99.45;99624.84;6125084;23;20432;-81
2023/11/15 01:15:07;;;;;;;16.85;11.10;;;;;;;6.47;98.08;99652.19;6125903;23;20100;-81
2023/11/15 01:17:36;;;;;;;19.92;12.27;;;;;;;6.04;97.81;99592.44;6126065;23;20040;-81
2023/11/15 01:20:03;;;;;;;15.60;11.15;;;;;;;5.61;100.00;99606.75;6126201;23;20085;-81
2023/11/15 01:22:29;;;;;;;15.67;8.73;;;;;;;5.78;100.00;99638.13;6151891;23;20036;-83
2023/11/15 01:24:55;;;;;;;14.13;8.88;;;;;;;5.68;100.00;99617.38;6126002;23;20099;-81
2023/11/15 01:27:20;;;;;;;16.00;8.32;;;;;;;5.36;100.00;99605.63;6125539;23;20092;-81
2023/11/15 01:29:46;;;;;;;22.73;8.88;;;;;;;5.38;100.00;99608.88;6151728;23;20012;-82
2023/11/15 01:32:11;;;;;;;14.85;9.07;;;;;;;5.62;100.00;99618.97;6125737;23;20006;-82
2023/11/15 01:34:37;;;;;;;17.73;9.38;;;;;;;5.53;100.00;99604.25;6125570;23;20056;-81
2023/11/15 01:37:02;;;;;;;16.65;9.35;;;;;;;5.58;100.00;99609.78;6125521;23;20085;-81
2023/11/15 01:39:28;;;;;;;16.95;11.63;;;;;;;6.04;100.00;99637.44;6125810;23;20076;-80
2023/11/15 01:41:55;;;;;;;13.75;9.43;;;;;;;5.99;97.45;99590.41;6125801;23;20014;-82
2023/11/15 01:44:22;;;;;;;14.83;9.83;;;;;;;5.37;100.00;99594.03;6125293;23;20006;-81
2023/11/15 01:46:49;;;;;;;22.50;10.13;;;;;;;5.71;100.00;99624.91;6125729;23;20485;-81
2023/11/15 01:49:20;;;;;;;15.32;9.60;;;;;;;5.78;98.58;99595.81;6125400;23;20025;-81
2023/11/15 01:51:46;;;;;;;14.00;8.80;;;;;;;5.60;100.00;99610.41;6125618;23;20033;-82
2023/11/15 01:54:13;;;;;;;13.98;8.60;;;;;;;5.33;99.73;99582.22;6125239;23;20498;-81
2023/11/15 01:56:40;;;;;;;12.18;8.35;;;;;;;5.07;100.00;99570.50;6125573;23;20006;-80
2023/11/15 01:59:06;;;;;;;14.88;8.57;;;;;;;5.14;99.84;99573.97;6151350;23;20056;-81
2023/11/15 02:01:32;;;;;;;16.42;8.80;;;;;;;5.03;100.00;99595.69;6124702;23;20018;-80
2023/11/15 02:03:58;;;;;;;16.40;11.07;;;;;;;5.21;98.99;99601.28;6125015;23;20009;-79
2023/11/15 02:06:31;;;;;;;14.07;8.90;;;;;;;5.31;97.07;99576.28;6151127;23;20385;-80
2023/11/15 02:08:58;;;;;;;11.98;7.82;;;;;;;5.30;96.75;99586.06;6124831;23;20009;-81
2023/11/15 02:11:24;;;;;;;14.77;8.57;;;;;;;5.40;96.05;99594.44;6124541;23;20355;-81
2023/11/15 02:13:51;;;;;;;14.10;7.72;;;;;;;5.38;95.74;99590.38;6151532;23;20009;-81
2023/11/15 02:16:17;;;;;;;14.48;8.77;;;;;;;5.20;97.39;99575.84;6125727;23;20013;-81
2023/11/15 02:18:43;;;;;;;15.10;8.68;;;;;;;5.11;99.20;99573.56;6125878;23;20009;-80
2023/11/15 02:21:09;;;;;;;15.95;8.48;;;;;;;5.13;100.00;99582.94;6124797;23;20055;-82
2023/11/15 02:23:55;;;;;;;13.35;8.73;;;;;;;5.29;100.00;99602.13;6125115;23;20013;-81
2023/11/15 02:26:20;;;;;;;13.38;8.50;;;;;;;5.41;99.53;99595.25;6125560;23;20029;-81
2023/11/15 02:28:46;;;;;;;13.90;8.02;;;;;;;5.36;100.00;99597.69;6151883;23;20001;-81
2023/11/15 02:31:11;;;;;;;16.17;9.60;;;;;;;5.45;100.00;99601.78;6125400;23;20006;-81
2023/11/15 02:33:37;;;;;;;17.08;8.57;;;;;;;5.53;100.00;99592.88;6125184;23;20001;-81
2023/11/15 02:36:04;;;;;;;17.15;9.68;;;;;;;5.63;100.00;99630.34;6125331;23;20017;-81
2023/11/15 02:38:29;;;;;;;16.88;8.98;;;;;;;5.26;100.00;99621.03;6125442;23;20005;-80
2023/11/15 02:40:55;;;;;;;18.92;11.10;;;;;;;5.22;100.00;99613.47;6151287;23;20006;-81
2023/11/15 02:43:20;;;;;;;16.17;9.95;;;;;;;5.12;100.00;99639.44;6151015;23;20017;-81
2023/11/15 02:45:47;;;;;;;14.27;9.07;;;;;;;5.22;100.00;99629.34;6151076;23;20009;-81
2023/11/15 02:48:12;;;;;;;16.05;8.52;;;;;;;5.53;100.00;99624.63;6124936;23;20014;-81
2023/11/15 02:50:37;;;;;;;17.08;8.38;;;;;;;5.53;100.00;99628.06;6151610;23;20105;-80
2023/11/15 02:53:03;;;;;;;15.13;9.13;;;;;;;5.53;100.00;99630.72;6124933;23;20029;-81
2023/11/15 02:55:29;;;;;;;19.52;10.65;;;;;;;5.67;100.00;99620.22;6124834;23;20002;-81
2023/11/15 02:57:54;;;;;;;19.88;12.00;;;;;;;5.59;100.00;99619.34;6124300;23;20020;-81
2023/11/15 03:00:20;;;;;;;16.08;10.65;;;;;;;5.53;100.00;99606.91;6124595;23;20014;-80
2023/11/15 03:02:45;;;;;;;18.38;11.68;;;;;;;5.47;100.00;99623.56;6124644;23;20440;-81
2023/11/15 03:05:11;;;;;;;18.80;10.82;;;;;;;5.53;100.00;99630.72;6124830;23;20006;-83
2023/11/15 03:07:37;;;;;;;16.33;10.23;;;;;;;5.86;100.00;99629.22;6151504;23;20005;-81
2023/11/15 03:10:03;;;;;;;17.95;11.60;;;;;;;5.74;100.00;99637.75;6124934;23;20040;-82
2023/11/15 03:12:32;;;;;;;20.10;10.88;;;;;;;5.77;100.00;99653.22;6150814;23;20009;-81
2023/11/15 03:14:57;;;;;;;19.80;12.40;;;;;;;5.58;100.00;99649.47;6125007;23;20092;-82
2023/11/15 03:17:23;;;;;;;16.85;11.50;;;;;;;5.24;100.00;99632.59;6125510;23;20029;-81
2023/11/15 03:19:48;;;;;;;19.58;11.63;;;;;;;5.22;100.00;99655.78;6125037;23;20005;-80
2023/11/15 03:22:14;;;;;;;15.48;10.70;;;;;;;5.04;100.00;99644.88;6150970;23;20005;-82
2023/11/15 03:24:39;;;;;;;14.07;9.68;;;;;;;4.82;100.00;99639.66;6124825;23;20010;-81
2023/11/15 03:27:05;;;;;;;14.38;8.75;;;;;;;4.54;100.00;99636.19;6124736;23;20016;-82
2023/11/15 03:29:32;;;;;;;15.02;9.15;;;;;;;4.13;100.00;99566.38;6150984;23;20009;-81
2023/11/15 03:31:57;;;;;;;14.02;8.48;;;;;;;4.27;100.00;99614.81;6151123;23;20008;-81
2023/11/15 03:34:24;;;;;;;15.57;9.85;;;;;;;3.99;100.00;99618.19;6124338;23;20013;-81
2023/11/15 03:36:49;;;;;;;16.92;9.75;;;;;;;3.83;100.00;99586.75;6124216;23;20027;-81
2023/11/15 03:39:15;;;;;;;15.40;9.40;;;;;;;4.19;100.00;99596.47;6124945;23;20013;-81
2023/11/15 03:41:41;;;;;;;17.25;9.98;;;;;;;4.72;100.00;99598.72;6125028;23;20002;-81
2023/11/15 03:44:06;;;;;;;20.65;10.98;;;;;;;4.99;100.00;99628.78;6150728;23;20017;-82
2023/11/15 03:46:32;;;;;;;21.73;11.35;;;;;;;4.91;100.00;99610.44;6124938;23;20100;-81
2023/11/15 03:48:57;;;;;;;22.10;11.90;;;;;;;5.10;100.00;99638.81;6124577;23;20371;-81
2023/11/15 03:51:23;;;;;;;21.48;12.10;;;;;;;5.17;100.00;99615.91;6124435;23;20337;-83
2023/11/15 03:53:48;;;;;;;20.13;11.68;;;;;;;4.88;100.00;99590.50;6150255;23;20363;-82
2023/11/15 03:56:14;;;;;;;15.68;10.40;;;;;;;4.54;100.00;99586.00;6124820;23;20428;-81
2023/11/15 03:58:40;;;;;;;20.70;12.65;;;;;;;4.45;100.00;99563.38;6124850;23;20014;-81
2023/11/15 04:01:06;;;;;;;18.40;11.05;;;;;;;4.73;100.00;99592.44;6125831;23;20033;-80
2023/11/15 04:03:32;;;;;;;18.65;10.65;;;;;;;4.62;100.00;99564.72;6152898;23;20017;-82
2023/11/15 04:06:00;;;;;;;22.45;11.80;;;;;;;4.97;100.00;99570.03;6127104;23;20446;-84
2023/11/15 04:08:27;;;;;;;21.50;11.88;;;;;;;5.29;100.00;99583.63;6126799;23;20017;-81
2023/11/15 04:10:53;;;;;;;20.55;11.75;;;;;;;5.27;100.00;99609.44;6126728;23;20463;-80
2023/11/15 04:13:20;;;;;;;17.60;11.00;;;;;;;5.37;100.00;99588.72;6153040;23;20008;-81
2023/11/15 04:15:46;;;;;;;20.63;12.03;;;;;;;5.37;100.00;99572.88;6126908;23;20013;-83
2023/11/15 04:18:12;;;;;;;22.25;13.07;;;;;;;5.46;100.00;99598.16;6127200;23;20328;-81
2023/11/15 04:20:37;;;;;;;20.27;12.00;;;;;;;5.43;100.00;99598.53;6127100;23;20355;-81
2023/11/15 04:23:03;;;;;;;22.60;13.90;;;;;;;5.51;100.00;99585.13;6152514;23;20021;-82
2023/11/15 04:25:28;;;;;;;32.95;22.95;;;;;;;5.46;100.00;99566.41;6127034;23;20009;-81
2023/11/15 04:27:53;;;;;;;19.80;12.75;;;;;;;5.33;100.00;99572.47;6127300;23;20010;-81
2023/11/15 04:30:19;;;;;;;22.42;13.25;;;;;;;5.38;100.00;99570.03;6158814;23;20010;-83
2023/11/15 04:32:47;;;;;;;22.58;13.05;;;;;;;5.33;100.00;99566.34;6175041;23;20048;-81
2023/11/15 04:35:13;;;;;;;22.17;12.35;;;;;;;5.26;100.00;99574.25;6149619;23;20001;-81
2023/11/15 04:37:38;;;;;;;22.85;14.07;;;;;;;5.38;100.00;99558.66;6149993;23;20048;-84
2023/11/15 04:40:07;;;;;;;24.33;16.48;;;;;;;5.45;100.00;99538.31;6149199;23;20337;-81
2023/11/15 04:42:33;;;;;;;26.17;17.63;;;;;;;5.47;100.00;99549.50;6174129;23;20017;-82
2023/11/15 04:44:58;;;;;;;24.83;15.85;;;;;;;5.39;100.00;99547.88;6149822;23;20016;-82
2023/11/15 04:47:24;;;;;;;29.85;21.35;;;;;;;5.35;100.00;99532.59;6149461;23;20006;-82
2023/11/15 04:49:50;;;;;;;28.45;21.92;;;;;;;5.42;100.00;99509.66;6142493;23;20014;-82
2023/11/15 04:52:15;;;;;;;28.38;20.77;;;;;;;5.28;100.00;99518.53;6130523;23;20017;-82
2023/11/15 04:54:41;;;;;;;28.08;22.58;;;;;;;5.41;100.00;99527.34;6130701;23;20016;-81
2023/11/15 04:57:07;;;;;;;27.10;19.75;;;;;;;5.58;100.00;99521.69;6130425;23;20009;-81
2023/11/15 04:59:34;;;;;;;27.50;21.10;;;;;;;5.70;100.00;99532.50;6130462;23;20037;-81
2023/11/15 05:01:59;;;;;;;28.00;20.23;;;;;;;5.87;100.00;99528.47;6129912;23;20014;-81
2023/11/15 05:04:25;;;;;;;31.58;19.85;;;;;;;5.69;100.00;99502.59;6156584;23;20032;-81
2023/11/15 05:06:51;;;;;;;26.48;16.90;;;;;;;5.56;100.00;99487.50;6156103;23;20037;-81
2023/11/15 05:09:17;;;;;;;24.63;17.55;;;;;;;5.46;100.00;99487.06;6129599;23;20411;-82
2023/11/15 05:11:42;;;;;;;27.65;21.15;;;;;;;5.70;100.00;99508.69;6128202;23;20002;-81
2023/11/15 05:14:08;;;;;;;65.82;47.92;;;;;;;5.44;100.00;99494.41;6127861;23;20013;-81
2023/11/15 05:16:34;;;;;;;30.05;19.83;;;;;;;5.29;100.00;99467.28;6153428;23;20009;-81
2023/11/15 05:18:59;;;;;;;94.57;59.60;;;;;;;5.41;100.00;99476.25;6153731;23;20020;-81
2023/11/15 05:21:25;;;;;;;39.95;26.50;;;;;;;5.47;100.00;99461.44;6126661;23;20100;-83
2023/11/15 05:23:50;;;;;;;45.47;30.55;;;;;;;5.42;100.00;99493.78;6155079;23;20005;-82
2023/11/15 05:26:17;;;;;;;30.60;20.33;;;;;;;5.46;100.00;99471.22;6126123;23;20013;-81
2023/11/15 05:28:43;;;;;;;24.02;16.27;;;;;;;5.40;100.00;99440.28;6126732;23;20006;-81
2023/11/15 05:31:08;;;;;;;64.35;37.17;;;;;;;5.37;100.00;99467.09;6126007;23;20325;-81
2023/11/15 05:33:34;;;;;;;39.83;22.65;;;;;;;5.13;100.00;99458.72;6125950;23;20340;-80
2023/11/15 05:36:00;;;;;;;25.20;16.50;;;;;;;4.89;100.00;99438.09;6125944;23;20017;-80
2023/11/15 05:38:26;;;;;;;24.42;16.98;;;;;;;4.73;100.00;99434.75;6126219;23;20006;-80
2023/11/15 05:40:52;;;;;;;28.00;17.35;;;;;;;4.95;100.00;99469.00;6152096;23;20008;-81
2023/11/15 05:43:17;;;;;;;28.52;19.13;;;;;;;4.46;100.00;99435.66;6125604;23;20009;-81
2023/11/15 05:45:43;;;;;;;25.60;14.73;;;;;;;3.85;100.00;99467.88;6151193;23;20009;-81
2023/11/15 05:48:08;;;;;;;27.67;15.02;;;;;;;4.09;100.00;99475.38;6126147;23;20379;-81
2023/11/15 05:50:34;;;;;;;22.95;14.93;;;;;;;4.02;100.00;99442.84;6151931;23;20020;-83
2023/11/15 05:52:59;;;;;;;28.00;17.00;;;;;;;4.30;100.00;99424.38;6125761;23;20057;-81
2023/11/15 05:55:25;;;;;;;31.95;17.80;;;;;;;4.45;100.00;99474.41;6125721;23;20740;-81
2023/11/15 05:57:50;;;;;;;26.65;17.50;;;;;;;4.55;100.00;99451.13;6125296;23;20006;-81
2023/11/15 06:00:20;;;;;;;28.55;16.55;;;;;;;4.94;100.00;99477.94;6125756;23;20151;-81
2023/11/15 06:02:50;;;;;;;29.33;17.77;;;;;;;4.89;100.00;99464.50;6125688;23;20096;-82
2023/11/15 06:05:17;;;;;;;24.52;15.95;;;;;;;5.08;100.00;99452.38;6125390;23;20029;-81
2023/11/15 06:07:42;;;;;;;24.45;14.32;;;;;;;5.06;100.00;99438.53;6125524;23;20089;-81
2023/11/15 06:10:10;;;;;;;22.13;14.13;;;;;;;5.27;100.00;99458.72;6125389;23;20025;-80
2023/11/15 06:12:36;;;;;;;19.25;12.88;;;;;;;5.16;100.00;99471.50;6151678;23;20005;-80
2023/11/15 06:15:08;;;;;;;23.38;13.60;;;;;;;5.07;100.00;99450.72;6125068;23;20014;-80
2023/11/15 06:17:39;;;;;;;21.80;14.48;;;;;;;5.45;100.00;99437.81;6125265;23;20438;-80
2023/11/15 06:20:11;;;;;;;23.33;15.32;;;;;;;5.68;100.00;99447.22;6124915;23;20006;-79
2023/11/15 06:22:40;;;;;;;24.98;14.80;;;;;;;5.23;100.00;99408.09;6101590;23;20040;-81
2023/11/15 06:25:06;;;;;;;22.83;15.35;;;;;;;5.49;100.00;99417.91;6124233;23;20001;-80
2023/11/15 06:27:33;;;;;;;25.00;15.75;;;;;;;5.92;100.00;99436.03;6123953;23;20096;-79
2023/11/15 06:29:59;;;;;;;28.08;16.85;;;;;;;6.04;100.00;99425.69;6123813;23;20337;-80
2023/11/15 06:32:24;;;;;;;28.45;15.13;;;;;;;5.97;100.00;99417.75;6149835;23;20084;-81
2023/11/15 06:34:50;;;;;;;22.27;14.70;;;;;;;6.10;100.00;99408.19;6124453;23;20040;-81
2023/11/15 06:37:16;;;;;;;20.25;14.55;;;;;;;6.64;100.00;99399.91;6123856;23;20013;-82
2023/11/15 06:39:42;;;;;;;25.50;15.32;;;;;;;7.16;100.00;99444.94;6124134;23;20379;-80
2023/11/15 06:42:10;;;;;;;21.85;13.10;;;;;;;6.71;100.00;99425.56;6149825;23;20005;-82
2023/11/15 06:44:37;;;;;;;23.80;15.77;;;;;;;7.23;100.00;99432.47;6123717;23;20009;-79
2023/11/15 06:47:02;;;;;;;25.40;14.18;;;;;;;7.39;100.00;99417.06;6149906;23;20025;-81
2023/11/15 06:49:28;;;;;;;24.15;15.25;;;;;;;7.81;100.00;99436.78;6150089;23;20010;-81
2023/11/15 06:51:53;;;;;;;28.90;16.38;;;;;;;7.87;100.00;99424.47;6150757;23;20006;-82
2023/11/15 06:54:19;;;;;;;26.20;15.50;;;;;;;7.82;100.00;99435.72;6150521;23;20009;-81
2023/11/15 06:56:48;;;;;;;21.80;14.07;;;;;;;7.55;100.00;99432.47;6123831;23;20010;-81
2023/11/15 06:59:17;;;;;;;22.17;15.32;;;;;;;7.44;100.00;99433.16;6123831;23;20010;-80
2023/11/15 07:01:43;;;;;;;22.23;14.85;;;;;;;7.79;100.00;99406.97;6123774;23;20048;-80
2023/11/15 07:04:09;;;;;;;24.52;14.13;;;;;;;7.97;100.00;99419.50;6123743;23;20017;-81
2023/11/15 07:06:34;;;;;;;20.15;13.70;;;;;;;7.47;100.00;99414.16;6123919;23;20168;-81
2023/11/15 07:09:00;;;;;;;24.20;14.60;;;;;;;7.90;100.00;99420.56;6124398;23;20084;-81
2023/11/15 07:11:26;;;;;;;19.60;13.30;;;;;;;7.83;100.00;99404.72;6150515;23;20096;-80
2023/11/15 07:13:53;;;;;;;30.70;15.52;;;;;;;7.90;100.00;99407.31;6149948;23;20005;-83
2023/11/15 07:16:22;;;;;;;20.35;14.73;;;;;;;8.41;100.00;99436.25;6150059;23;20477;-83
2023/11/15 07:18:48;;;;;;;22.70;14.60;;;;;;;8.80;97.40;99436.84;6124536;23;20020;-82
2023/11/15 07:21:13;;;;;;;23.70;15.23;;;;;;;8.62;98.88;99415.59;6124258;23;20013;-81
2023/11/15 07:23:42;;;;;;;21.38;14.02;;;;;;;8.84;97.52;99418.63;6123964;23;20014;-80
2023/11/15 07:26:07;;;;;;;19.38;13.88;;;;;;;9.08;96.28;99430.19;6149643;23;20008;-82
2023/11/15 07:28:33;;;;;;;21.00;14.90;;;;;;;9.18;95.75;99419.03;6123417;23;20005;-82
2023/11/15 07:30:59;;;;;;;19.83;14.73;;;;;;;9.47;95.07;99428.03;6123847;23;20010;-81
2023/11/15 07:33:24;;;;;;;23.92;15.85;;;;;;;9.48;93.53;99412.84;6149513;23;20466;-81
2023/11/15 07:35:50;;;;;;;21.77;14.65;;;;;;;9.52;95.83;99425.50;6123583;23;20001;-82
2023/11/15 07:38:16;;;;;;;20.98;14.02;;;;;;;9.57;94.90;99432.81;6149328;23;20013;-82
2023/11/15 07:40:42;;;;;;;17.52;12.77;;;;;;;9.40;95.97;99400.72;6123869;23;20068;-82
2023/11/15 07:43:09;;;;;;;20.63;13.48;;;;;;;9.63;94.79;99416.72;6149074;23;20012;-81
2023/11/15 07:45:35;;;;;;;18.40;12.75;;;;;;;9.91;93.16;99415.28;6123574;23;20490;-81
2023/11/15 07:48:05;;;;;;;21.52;13.98;;;;;;;10.25;91.30;99423.47;6149400;23;20013;-83
2023/11/15 07:50:32;;;;;;;20.80;14.30;;;;;;;10.32;89.46;99413.56;6149155;23;20029;-82
2023/11/15 07:52:57;;;;;;;20.80;13.68;;;;;;;10.37;89.70;99405.66;6149295;23;20010;-82
2023/11/15 07:55:23;;;;;;;19.13;13.38;;;;;;;10.21;90.55;99401.00;6149596;23;20012;-82
2023/11/15 07:57:48;;;;;;;18.92;13.05;;;;;;;10.04;91.12;99409.69;6148738;23;20017;-82
2023/11/15 08:00:14;;;;;;;20.77;14.15;;;;;;;10.28;90.64;99417.72;6149137;23;20092;-83
2023/11/15 08:02:41;;;;;;;19.27;13.23;;;;;;;10.46;87.62;99392.78;6149529;23;20069;-81
2023/11/15 08:05:07;;;;;;;19.05;12.95;;;;;;;10.53;89.91;99408.66;6123087;23;20068;-80
2023/11/15 08:07:37;;;;;;;17.73;12.45;;;;;;;10.55;90.53;99406.59;6149862;23;20515;-80
2023/11/15 08:10:03;;;;;;;17.33;12.45;;;;;;;10.62;88.15;99402.75;6150550;23;20009;-81
2023/11/15 08:12:35;;;;;;;17.23;11.32;;;;;;;10.47;87.88;99407.75;6150916;23;20085;-81
2023/11/15 08:15:02;;;;;;;17.25;11.35;;;;;;;10.73;85.50;99387.75;6150656;23;20037;-81
2023/11/15 08:17:28;;;;;;;16.48;11.20;;;;;;;10.72;85.81;99391.47;6150565;23;20002;-80
2023/11/15 08:19:56;;;;;;;18.55;11.40;;;;;;;11.08;84.82;99394.81;6150317;23;20025;-81
2023/11/15 08:22:21;;;;;;;17.83;11.40;;;;;;;11.60;82.10;99424.03;6124700;23;20009;-83
2023/11/15 08:24:48;;;;;;;19.30;11.75;;;;;;;11.41;83.66;99433.31;6150449;23;20449;-82
2023/11/15 08:27:14;;;;;;;18.00;12.50;;;;;;;11.27;83.09;99387.41;6150130;23;20087;-82
2023/11/15 08:29:41;;;;;;;18.15;13.13;;;;;;;11.60;83.82;99393.84;6124147;23;20041;-82
2023/11/15 08:32:07;;;;;;;23.98;13.70;;;;;;;12.17;83.20;99392.88;6149936;23;20056;-83
2023/11/15 08:34:33;;;;;;;17.27;11.95;;;;;;;12.27;79.72;99401.06;6124100;23;20005;-81
2023/11/15 08:36:59;;;;;;;20.42;11.57;;;;;;;12.46;79.37;99390.88;6150164;23;20037;-82
2023/11/15 08:39:25;;;;;;;17.90;11.65;;;;;;;12.13;81.41;99383.75;6123729;23;20101;-82
2023/11/15 08:41:51;;;;;;;15.93;11.25;;;;;;;12.67;79.94;99405.34;6122819;23;20016;-82
2023/11/15 08:44:17;;;;;;;20.40;11.73;;;;;;;12.91;77.48;99407.72;6122882;23;20006;-85
2023/11/15 08:46:47;;;;;;;15.25;11.02;;;;;;;13.37;75.27;99416.28;6123960;23;20005;-83
2023/11/15 08:49:14;;;;;;;16.15;10.95;;;;;;;13.41;74.65;99410.19;6151239;23;20347;-85
2023/11/15 08:51:44;;;;;;;17.00;10.77;;;;;;;13.31;73.48;99385.97;6124793;23;20387;-83
2023/11/15 08:54:10;;;;;;;16.85;10.18;;;;;;;13.66;74.21;99411.47;6125280;23;20006;-83
2023/11/15 08:56:40;;;;;;;15.75;10.52;;;;;;;13.89;72.85;99394.22;6150973;23;20372;-81
2023/11/15 08:59:10;;;;;;;16.58;11.57;;;;;;;13.96;70.60;99376.06;6125036;23;20017;-83
2023/11/15 09:01:38;;;;;;;15.93;10.55;;;;;;;13.74;71.88;99384.19;6125457;23;20010;-81
2023/11/15 09:04:05;;;;;;;15.65;10.90;;;;;;;13.92;70.84;99398.28;6124967;23;20029;-82
2023/11/15 09:06:31;;;;;;;17.10;12.00;;;;;;;14.06;69.66;99384.16;6125065;23;20056;-84
2023/11/15 09:08:57;;;;;;;15.77;11.88;;;;;;;13.85;71.77;99393.13;6150599;23;20028;-83
2023/11/15 09:11:23;;;;;;;17.20;11.05;;;;;;;13.84;71.99;99402.25;6150969;23;20002;-83
2023/11/15 09:13:49;;;;;;;16.80;12.38;;;;;;;13.92;73.25;99399.09;6151294;23;20339;-83
2023/11/15 09:16:18;;;;;;;23.45;12.35;;;;;;;13.97;73.06;99369.63;6125163;23;20483;-82
2023/11/15 09:18:44;;;;;;;21.58;13.98;;;;;;;14.01;73.19;99343.91;6124719;23;20009;-83
2023/11/15 09:21:12;;;;;;;17.55;12.27;;;;;;;14.12;72.67;99339.44;6125290;23;20006;-82
2023/11/15 09:23:38;;;;;;;16.15;12.10;;;;;;;14.29;73.49;99360.69;6124976;23;20005;-83
2023/11/15 09:26:04;;;;;;;17.15;12.50;;;;;;;14.56;72.04;99382.03;6125304;23;20356;-82
2023/11/15 09:28:30;;;;;;;17.10;12.35;;;;;;;14.64;72.28;99352.03;6125018;23;20010;-82
2023/11/15 09:30:56;;;;;;;16.85;11.70;;;;;;;14.81;70.35;99311.56;6150404;23;20002;-83
2023/11/15 09:33:21;;;;;;;17.13;12.00;;;;;;;15.14;67.77;99325.56;6150933;23;20013;-83
2023/11/15 09:35:47;;;;;;;18.20;11.73;;;;;;;15.48;66.86;99355.41;6124555;23;20079;-82
2023/11/15 09:38:14;;;;;;;15.63;11.40;;;;;;;15.78;65.68;99369.16;6124296;23;20088;-83
2023/11/15 09:40:41;;;;;;;16.30;10.98;;;;;;;16.21;62.23;99348.09;6150533;23;20009;-83
2023/11/15 09:43:07;;;;;;;14.97;9.77;;;;;;;16.25;61.19;99360.72;6150664;23;20518;-83
2023/11/15 09:45:41;;;;;;;15.60;10.48;;;;;;;16.41;61.78;99361.47;6150833;23;20002;-82
2023/11/15 09:48:09;;;;;;;14.20;9.27;;;;;;;16.87;58.05;99350.50;6150391;23;20009;-83
2023/11/15 09:50:37;;;;;;;13.90;9.55;;;;;;;16.96;57.05;99323.00;6150572;23;20025;-83
2023/11/15 09:53:05;;;;;;;15.05;10.48;;;;;;;16.86;58.13;99335.47;6123900;23;20016;-83
2023/11/15 09:55:33;;;;;;;16.83;10.07;;;;;;;16.74;58.01;99310.72;6150398;23;20089;-83
2023/11/15 09:58:00;;;;;;;14.77;9.88;;;;;;;16.50;59.03;99320.53;6123694;23;20479;-83
2023/11/15 10:00:29;;;;;;;17.35;10.30;;;;;;;15.99;59.96;99324.19;6150561;23;20023;-83
2023/11/15 10:02:55;;;;;;;13.40;9.57;;;;;;;15.98;60.79;99304.59;6124408;23;20020;-83
2023/11/15 10:05:29;;;;;;;15.45;9.65;;;;;;;16.61;60.70;99322.09;6124178;23;20092;-83
2023/11/15 10:08:12;;;;;;;13.20;8.70;;;;;;;17.45;56.74;99324.81;6124042;23;20068;-82
2023/11/15 10:10:39;;;;;;;14.60;8.57;;;;;;;17.71;54.10;99301.09;6124309;23;20412;-83
2023/11/15 10:13:12;;;;;;;15.45;9.27;;;;;;;17.92;53.38;99323.34;6149772;23;20005;-83
2023/11/15 10:15:39;;;;;;;13.73;9.50;;;;;;;17.73;54.95;99303.53;6150481;23;20001;-84
2023/11/15 10:18:08;;;;;;;14.40;8.90;;;;;;;18.42;51.61;99320.34;6150181;23;20006;-82
2023/11/15 10:20:34;;;;;;;11.73;8.55;;;;;;;18.45;51.59;99288.19;6150155;23;20009;-82
2023/11/15 10:22:59;;;;;;;14.80;8.45;;;;;;;18.64;50.86;99285.47;6149623;23;20005;-80
2023/11/15 10:25:25;;;;;;;12.63;7.95;;;;;;;19.09;47.92;99290.53;6149699;23;20001;-83
2023/11/15 10:28:14;;;;;;;11.70;7.57;;;;;;;19.08;47.51;99278.13;6149771;23;20068;-83
2023/11/15 10:30:40;;;;;;;10.90;7.22;;;;;;;19.39;48.25;99286.53;6149335;23;20403;-81
2023/11/15 10:33:14;;;;;;;10.85;7.80;;;;;;;19.16;47.11;99280.16;6123334;23;20639;-81
2023/11/15 10:35:43;;;;;;;10.15;7.25;;;;;;;19.42;47.83;99282.44;6123607;23;20466;-79
2023/11/15 10:38:17;;;;;;;10.95;7.57;;;;;;;19.53;47.95;99294.66;6123737;23;20013;-80
2023/11/15 10:40:46;;;;;;;12.68;8.45;;;;;;;19.71;46.40;99290.34;6149328;23;20081;-82
2023/11/15 10:43:14;;;;;;;11.93;8.18;;;;;;;19.97;46.50;99296.06;6123289;23;20037;-81
2023/11/15 10:45:43;;;;;;;11.25;7.68;;;;;;;19.87;46.17;99270.00;6149531;23;20005;-81
2023/11/15 10:48:11;;;;;;;10.50;6.68;;;;;;;20.02;45.03;99295.16;6149454;23;20012;-80
2023/11/15 10:50:53;;;;;;;9.60;6.60;;;;;;;19.57;47.21;99279.44;6122817;23;20010;-81
2023/11/15 10:53:19;;;;;;;9.50;6.35;;;;;;;19.77;44.94;99282.94;6149141;23;20006;-81
2023/11/15 10:55:46;;;;;;;9.95;6.80;;;;;;;19.10;46.80;99254.28;6149018;23;20028;-81
2023/11/15 10:58:14;;;;;;;9.35;6.35;;;;;;;19.54;47.21;99274.66;6149168;23;20009;-80
2023/11/15 11:00:43;;;;;;;9.70;6.78;;;;;;;19.42;46.51;99274.31;6148896;23;20005;-81
2023/11/15 11:03:09;;;;;;;11.35;7.00;;;;;;;19.18;47.80;99272.53;6123110;23;20009;-82
2023/11/15 11:05:50;;;;;;;9.82;5.93;;;;;;;18.90;48.10;99254.63;6149537;23;20001;-82
2023/11/15 11:08:40;;;;;;;9.88;6.35;;;;;;;19.14;46.60;99266.13;6123419;23;20009;-82
2023/11/15 11:11:08;;;;;;;8.63;5.80;;;;;;;19.12;47.57;99295.34;6149773;23;20009;-83
2023/11/15 11:13:34;;;;;;;9.93;6.18;;;;;;;18.84;49.29;99289.84;6149293;23;20009;-80
2023/11/15 11:16:24;;;;;;;8.75;5.53;;;;;;;18.72;50.21;99313.75;6149926;23;20400;-82
2023/11/15 11:19:16;;;;;;;10.98;5.78;;;;;;;18.60;49.48;99313.38;6123288;23;20363;-84
2023/11/15 11:22:02;;;;;;;8.63;4.60;;;;;;;18.32;49.47;99302.38;6108243;23;20017;-81